createdAt,value
2019-05-10T06:09:45.678Z,44.50
2019-05-10T06:12:16.443Z,44.70
2019-05-10T06:14:49.799Z,44.90
2019-05-10T06:17:23.824Z,44.50
2019-05-10T06:19:51.968Z,44.70
2019-05-10T06:22:23.725Z,44.30
2019-05-10T06:24:55.234Z,44.60
2019-05-10T06:27:25.236Z,45.00
2019-05-10T06:29:55.526Z,44.60
2019-05-10T06:32:24.411Z,43.80
2019-05-10T06:34:54.338Z,43.40
2019-05-10T06:37:24.601Z,43.30
2019-05-10T06:39:57.238Z,42.90
2019-05-10T06:42:28.775Z,43.40
2019-05-10T06:44:58.090Z,42.70
2019-05-10T06:47:28.285Z,42.60
2019-05-10T06:49:57.289Z,42.70
2019-05-10T06:52:29.566Z,42.90
2019-05-10T06:55:00.468Z,42.70
2019-05-10T06:57:30.831Z,42.50
2019-05-10T07:00:06.254Z,42.30
2019-05-10T07:02:32.466Z,42.10
2019-05-10T07:05:02.418Z,41.30
2019-05-10T07:07:43.688Z,41.30
2019-05-10T07:10:15.690Z,41.00
2019-05-10T07:12:40.226Z,40.70
2019-05-10T07:15:10.766Z,40.90
2019-05-10T07:17:45.248Z,40.80
2019-05-10T07:20:12.407Z,41.50
2019-05-10T07:22:42.592Z,41.00
2019-05-10T07:25:14.598Z,40.90
2019-05-10T07:27:44.791Z,40.90
2019-05-10T07:30:15.711Z,40.80
2019-05-10T07:32:47.330Z,40.90
2019-05-10T07:35:16.378Z,40.80
2019-05-10T07:37:47.667Z,41.30
2019-05-10T07:40:20.354Z,40.80
2019-05-10T07:42:52.203Z,40.90
2019-05-10T07:45:25.603Z,40.70
2019-05-10T07:47:52.534Z,40.90
2019-05-10T07:50:21.647Z,40.50
2019-05-10T07:52:50.778Z,40.70
2019-05-10T07:55:27.732Z,40.70
2019-05-10T07:57:59.148Z,40.90
2019-05-10T08:00:29.480Z,40.90
2019-05-10T08:03:11.842Z,40.80
2019-05-10T08:05:30.267Z,40.40
2019-05-10T08:08:00.585Z,40.40
2019-05-10T08:10:31.186Z,40.30
2019-05-10T08:13:03.474Z,40.10
2019-05-10T08:15:34.746Z,40.20
2019-05-10T08:18:03.719Z,40.20
2019-05-10T08:20:46.606Z,39.70
2019-05-10T08:23:06.491Z,39.80
2019-05-10T08:25:44.324Z,39.80
2019-05-10T08:28:07.544Z,40.00
2019-05-10T08:30:50.778Z,39.80
2019-05-10T08:33:14.049Z,40.50
2019-05-10T08:35:45.902Z,39.60
2019-05-10T08:38:13.974Z,40.10
2019-05-10T08:40:44.751Z,40.00
2019-05-10T08:43:16.907Z,40.20
2019-05-10T08:45:49.534Z,40.20
2019-05-10T08:48:18.442Z,40.10
2019-05-10T08:50:55.898Z,40.10
2019-05-10T08:53:19.677Z,40.20
2019-05-10T08:55:49.276Z,40.20
2019-05-10T08:58:21.710Z,40.30
2019-05-10T09:01:05.247Z,40.20
2019-05-10T09:03:24.008Z,40.10
2019-05-10T09:05:54.898Z,40.10
2019-05-10T09:08:27.322Z,40.40
2019-05-10T09:10:55.493Z,40.10
2019-05-10T09:13:28.669Z,39.90
2019-05-10T09:15:56.931Z,40.00
2019-05-10T09:18:26.544Z,39.80
2019-05-10T09:21:00.318Z,39.90
2019-05-10T09:23:28.113Z,39.70
2019-05-10T09:26:03.659Z,39.80
2019-05-10T09:28:27.799Z,40.30
2019-05-10T09:31:01.198Z,39.60
2019-05-10T09:33:29.378Z,39.60
2019-05-10T09:36:02.744Z,39.70
2019-05-10T09:38:34.929Z,39.70
2019-05-10T09:41:02.456Z,39.80
2019-05-10T09:43:32.797Z,39.80
2019-05-10T09:46:03.117Z,39.40
2019-05-10T09:48:33.414Z,39.40
2019-05-10T09:51:04.023Z,39.50
2019-05-10T09:53:38.310Z,39.40
2019-05-10T09:56:07.892Z,39.30
2019-05-10T09:58:38.833Z,39.80
2019-05-10T10:01:17.804Z,39.70
2019-05-10T10:03:43.554Z,39.50
2019-05-10T12:42:41.602Z,36.90
2019-05-10T12:45:09.929Z,36.40
2019-05-10T12:47:41.456Z,36.30
2019-05-10T12:50:10.198Z,36.10
2019-05-10T12:52:39.531Z,36.60
2019-05-10T12:55:08.875Z,36.10
2019-05-10T12:57:37.686Z,36.30
2019-05-10T13:00:12.890Z,36.20
2019-05-10T13:02:37.499Z,36.80
2019-05-10T13:05:07.450Z,36.70
2019-05-10T13:07:37.287Z,36.40
2019-05-10T13:10:09.211Z,36.10
2019-05-10T13:12:44.404Z,35.90
2019-05-10T13:15:09.292Z,36.20
2019-05-10T13:17:44.123Z,35.70
2019-05-10T13:20:09.969Z,35.50
2019-05-10T13:22:39.679Z,35.50
2019-05-10T13:25:08.346Z,35.50
2019-05-10T13:27:38.281Z,35.60
2019-05-10T13:30:08.986Z,34.50
2019-05-10T13:32:38.604Z,34.50
2019-05-10T13:35:07.455Z,35.10
2019-05-10T13:37:36.474Z,34.60
2019-05-10T13:40:08.129Z,34.60
2019-05-10T13:42:43.243Z,34.70
2019-05-10T13:45:07.664Z,34.70
2019-05-10T13:47:36.666Z,34.70
2019-05-10T13:50:07.530Z,34.70
2019-05-10T13:52:40.680Z,34.90
2019-05-10T13:55:07.431Z,34.30
2019-05-10T13:57:36.392Z,34.40
2019-05-10T14:00:07.293Z,34.40
2019-05-10T14:02:36.224Z,34.70
2019-05-10T14:05:06.211Z,35.10
2019-05-10T14:07:35.054Z,34.50
2019-05-10T14:10:04.685Z,35.60
2019-05-10T14:12:33.483Z,34.50
2019-05-10T14:15:08.265Z,37.00
2019-05-10T14:17:32.829Z,35.80
2019-05-10T14:20:01.729Z,35.30
2019-05-10T14:22:30.865Z,35.40
2019-05-10T14:25:00.233Z,35.20
2019-05-10T14:27:29.806Z,35.00
2019-05-10T14:29:59.955Z,34.90
2019-05-10T14:32:28.969Z,34.70
2019-05-10T14:34:57.944Z,34.90
2019-05-10T14:37:26.764Z,34.70
2019-05-10T14:39:55.722Z,35.10
2019-05-10T14:42:31.096Z,35.90
2019-05-10T14:44:55.957Z,34.80
2019-05-10T14:47:24.861Z,35.10
2019-05-10T14:49:53.958Z,35.10
2019-05-10T14:52:22.833Z,34.40
2019-05-10T14:54:55.186Z,34.20
2019-05-10T14:57:22.599Z,34.10
2019-05-10T14:59:51.569Z,33.80
2019-05-10T15:02:22.482Z,34.30
2019-05-10T15:04:50.900Z,34.70
2019-05-10T15:07:20.668Z,34.30
